Aeroporto :
LOGIN :

Iscrizione | Disclaimer

   EN    FR    IT 

 










Sommario :    VFR   VFR Marginale   IFR   IFR Intensivo   IFR Molto Intensivo
Visibilità : 
Base nubi : 
>= 8 km
>= 3000ft
5 / 8 km
1000 / 3000 ft
1500m / 5 km
500 / 1000 ft
800 / 1500m
200 / 500 ft
< 800m
< 200 ft
Simboli :   Temporali  Nebbia  Neve Forte  Precipitazioni Forti  Vento > 20 kt
SIGMETs :   Varie  Temporali  Ghiacco  Turbolenza  Onda orograficha  Ceneri Vulcaniche






- Altitudine del aeroporto : 1910 ft
- Codice IATA : RDZ


LFCR - Rodez

ULTIMO METAR :
  • 040530Z AUTO 19007KT 9999 -RA SCT011/// SCT024/// OVC032/// ///TCU 03/02 Q0990 BECMG 27012KT OVC006

METARs OBSOLETI :
  • 040500Z AUTO 21007KT 9999 -RA FEW008/// BKN012/// BKN019/// ///TCU 03/02 Q0990 BECMG 27012KT OVC006
  • 040430Z AUTO 23008KT 9999 -RA FEW010/// SCT020/// BKN028/// ///TCU 03/02 Q0990 BECMG OVC006
  • 040400Z AUTO 24009KT 9999 -RA BKN009/// BKN014/// OVC036/// ///CB 03/02 Q0990 BECMG OVC006
  • 040330Z AUTO 25010KT 9999 -RA BKN010/// BKN019/// OVC028/// ///TCU 03/02 Q0991 TEMPO 18015G30KT 3000 RA BKN003 OVC010
  • 040300Z AUTO 26011KT 9999 -RA OVC008/// ///TCU 04/03 Q0991 TEMPO 18015G30KT 3000 RA BKN003 OVC010

TAF TAF LFCR
Valido dal 04 a 06 ore il 05 a 06 ore UTC


040500Z 0406/0506 25010KT 9999 -RA OVC006
BECMG 0408/0410 NSW BKN011 BKN018
TEMPO 0410/0421 -SHRA SCT006 BKN010TCU
PROB30
TEMPO 0417/0421 4000 -SHRASN BKN004 BKN008TCU
BECMG 0421/0423 VRB02KT OVC005



MetMap, La meteo Aeronautica in un colpo d'occhio ! - Copyright ORBIFLY Dicembre 2007 - Disclaimer

ORBIFLY MET'MAP TEAM :

Programmazione e sviluppo : Alexandra Zaïnal
Concezione : Baudouin d'Aumeries
Aiuto per la programmazione : Marc-Olivier Méhu
Supporto tecnico e logistico : Manuel Goepfert
Aiuto per la traduzione : Arnaldo La Scala

Contatto : metmap@orbifly.com




FONTI E CREDITI :

   NOAA